createdAt,value
2023-03-12T00:01:20.816Z,38.30
2023-03-12T00:03:49.015Z,36.27
2023-03-12T00:06:17.297Z,39.67
2023-03-12T00:08:44.907Z,32.90
2023-03-12T00:11:14.846Z,36.07
2023-03-12T00:13:43.064Z,32.97
2023-03-12T00:16:14.538Z,28.80
2023-03-12T00:18:42.536Z,29.97
2023-03-12T00:21:10.508Z,32.33
2023-03-12T00:23:37.912Z,32.83
2023-03-12T00:26:08.528Z,30.30
2023-03-12T00:28:36.764Z,34.00
2023-03-12T00:31:12.955Z,32.17
2023-03-12T00:33:40.029Z,34.20
2023-03-12T00:36:07.790Z,33.53
2023-03-12T00:38:34.942Z,31.77
2023-03-12T00:41:02.023Z,34.87
2023-03-12T00:43:29.123Z,35.27
2023-03-12T00:45:56.210Z,34.57
2023-03-12T00:48:23.550Z,36.83
2023-03-12T00:50:50.594Z,36.53
2023-03-12T00:53:17.835Z,35.63
2023-03-12T00:55:44.992Z,36.87
2023-03-12T01:02:41.184Z,32.07
2023-03-12T01:05:11.017Z,41.03
2023-03-12T01:07:38.210Z,39.80
2023-03-12T01:10:06.848Z,37.07
2023-03-12T01:16:59.769Z,38.97
2023-03-12T01:19:27.143Z,39.67
2023-03-12T01:21:54.298Z,35.03
2023-03-12T01:24:21.320Z,42.00
2023-03-12T01:31:21.198Z,40.30
2023-03-12T01:33:52.543Z,43.87
2023-03-12T01:36:25.956Z,44.53
2023-03-12T01:38:54.994Z,46.23
2023-03-12T01:41:23.282Z,48.77
2023-03-12T01:43:51.214Z,48.10
2023-03-12T01:46:33.408Z,44.80
2023-03-12T01:49:13.795Z,40.13
2023-03-12T01:51:50.585Z,43.40
2023-03-12T01:54:44.640Z,40.57
2023-03-12T01:58:48.813Z,38.47
2023-03-12T02:01:18.485Z,35.87
2023-03-12T02:03:49.026Z,38.87
2023-03-12T02:06:17.641Z,40.40
2023-03-12T02:08:47.729Z,41.03
2023-03-12T02:11:15.123Z,40.43
2023-03-12T02:13:43.101Z,38.77
2023-03-12T02:16:10.592Z,42.60
2023-03-12T02:18:38.027Z,39.27
2023-03-12T02:21:37.654Z,40.63
2023-03-12T02:24:41.634Z,38.13
2023-03-12T02:28:12.507Z,39.97
2023-03-12T02:30:44.636Z,42.73
2023-03-12T02:33:12.792Z,44.57
2023-03-12T02:35:39.914Z,41.57
2023-03-12T02:38:25.784Z,42.87
2023-03-12T02:40:53.699Z,42.73
2023-03-12T02:43:22.852Z,41.80
2023-03-12T02:45:50.055Z,41.93
2023-03-12T02:48:17.196Z,41.07
2023-03-12T02:50:44.462Z,45.17
2023-03-12T02:53:11.514Z,42.10
2023-03-12T02:55:38.865Z,44.23
2023-03-12T02:58:06.167Z,43.20
2023-03-12T03:00:33.308Z,39.20
2023-03-12T03:03:00.892Z,43.60
2023-03-12T03:05:28.103Z,40.83
2023-03-12T03:07:55.511Z,38.33
2023-03-12T03:10:22.549Z,37.63
2023-03-12T03:12:50.138Z,38.17
2023-03-12T03:15:17.747Z,27.77
2023-03-12T03:17:44.807Z,30.27
2023-03-12T03:20:12.316Z,30.70
2023-03-12T03:22:39.736Z,27.40
2023-03-12T03:25:08.728Z,26.27
2023-03-12T03:27:35.909Z,23.67
2023-03-12T03:30:03.970Z,20.67
2023-03-12T03:32:34.064Z,22.00
2023-03-12T03:35:01.259Z,22.37
2023-03-12T03:37:28.494Z,26.40
2023-03-12T03:39:55.664Z,24.97
2023-03-12T03:42:23.318Z,21.80
2023-03-12T03:49:26.693Z,22.57
2023-03-12T03:51:54.311Z,24.63
2023-03-12T03:54:29.713Z,24.90
2023-03-12T03:56:56.883Z,26.17
2023-03-12T03:59:24.428Z,25.57
2023-03-12T04:01:52.460Z,22.93
2023-03-12T04:04:19.547Z,24.37
2023-03-12T04:06:46.576Z,27.10
2023-03-12T04:09:14.839Z,24.17
2023-03-12T04:11:42.345Z,22.13
2023-03-12T04:14:12.394Z,25.20
2023-03-12T04:16:43.528Z,23.60
2023-03-12T04:19:10.778Z,25.00
2023-03-12T04:21:39.695Z,21.67
2023-03-12T04:24:12.257Z,24.50
2023-03-12T04:26:39.367Z,26.27
2023-03-12T04:29:07.829Z,22.17
2023-03-12T04:31:35.390Z,23.07
2023-03-12T04:34:02.612Z,23.37
2023-03-12T04:36:29.867Z,23.93
2023-03-12T04:38:57.369Z,25.43
2023-03-12T04:41:29.326Z,24.50
2023-03-12T04:44:03.086Z,22.43
2023-03-12T04:46:30.561Z,25.83
2023-03-12T04:48:58.339Z,23.93
2023-03-12T04:51:25.460Z,21.50
2023-03-12T04:53:52.785Z,22.27
2023-03-12T04:56:19.848Z,22.73
2023-03-12T04:58:47.672Z,22.77
2023-03-12T05:01:21.797Z,21.57
2023-03-12T05:03:49.068Z,21.23
2023-03-12T05:06:16.392Z,23.13
2023-03-12T05:08:44.304Z,21.40
2023-03-12T05:11:11.735Z,25.50
2023-03-12T05:13:38.888Z,25.77
2023-03-12T05:16:06.434Z,25.97
2023-03-12T05:18:33.930Z,21.27
2023-03-12T05:21:03.888Z,20.33
2023-03-12T05:23:31.694Z,22.60
2023-03-12T05:25:59.395Z,21.17
2023-03-12T05:28:28.823Z,23.33
2023-03-12T05:31:00.292Z,30.13
2023-03-12T05:33:28.850Z,23.43
2023-03-12T05:35:57.666Z,22.50
2023-03-12T05:38:24.955Z,23.33
2023-03-12T05:40:55.428Z,22.83
2023-03-12T05:43:23.283Z,23.10
2023-03-12T05:50:17.875Z,22.47
2023-03-12T05:52:46.210Z,24.40
2023-03-12T05:55:13.385Z,21.73
2023-03-12T05:57:40.562Z,19.93
2023-03-12T06:00:08.507Z,20.03
2023-03-12T06:02:44.533Z,19.20
2023-03-12T06:05:12.408Z,21.13
2023-03-12T06:07:40.341Z,20.40
2023-03-12T06:10:08.262Z,21.53
2023-03-12T06:12:35.650Z,20.10
2023-03-12T06:15:02.837Z,19.03
2023-03-12T06:17:32.045Z,21.73
2023-03-12T06:19:59.561Z,18.00
2023-03-12T06:22:26.925Z,17.80
2023-03-12T06:24:54.350Z,19.57
2023-03-12T06:27:21.501Z,15.50
2023-03-12T06:29:48.665Z,21.83
2023-03-12T06:32:16.183Z,15.40
2023-03-12T06:34:43.415Z,16.47
2023-03-12T06:37:11.771Z,17.23
2023-03-12T06:39:39.389Z,13.57
2023-03-12T06:42:06.586Z,15.77
2023-03-12T06:44:33.834Z,13.77
2023-03-12T06:47:00.968Z,15.17
2023-03-12T06:49:32.208Z,15.60
2023-03-12T06:51:59.395Z,10.93
2023-03-12T06:54:26.602Z,18.10
2023-03-12T06:56:53.655Z,17.50
2023-03-12T06:59:21.882Z,17.73
2023-03-12T07:01:49.616Z,15.33
2023-03-12T07:04:16.768Z,12.60
2023-03-12T07:06:43.882Z,14.67
2023-03-12T07:09:11.114Z,13.30
2023-03-12T07:11:38.515Z,13.20
2023-03-12T07:14:05.735Z,14.50
2023-03-12T07:21:01.265Z,12.87
2023-03-12T07:23:28.317Z,13.63
2023-03-12T07:25:55.445Z,17.03
2023-03-12T07:28:23.071Z,12.87
2023-03-12T07:35:16.902Z,9.90
2023-03-12T07:37:46.857Z,10.80
2023-03-12T07:40:14.029Z,9.50
2023-03-12T07:42:41.020Z,9.40
2023-03-12T07:45:08.522Z,10.10
2023-03-12T07:47:35.878Z,9.23
2023-03-12T07:50:03.551Z,9.27
2023-03-12T07:52:30.624Z,10.13
2023-03-12T07:54:58.738Z,8.57
2023-03-12T07:57:25.878Z,6.90
2023-03-12T07:59:53.172Z,7.27
2023-03-12T08:02:20.757Z,7.87
2023-03-12T08:04:48.050Z,7.97
2023-03-12T08:07:15.309Z,10.87
2023-03-12T08:09:42.923Z,6.50
2023-03-12T08:12:10.233Z,7.43
2023-03-12T08:14:37.589Z,9.00
2023-03-12T08:21:30.967Z,5.60
2023-03-12T08:23:58.082Z,6.50
2023-03-12T08:26:25.217Z,8.83
2023-03-12T08:28:52.335Z,6.97
2023-03-12T08:31:19.501Z,6.50
2023-03-12T08:33:47.097Z,6.53
2023-03-12T08:36:14.153Z,5.93
2023-03-12T08:38:41.141Z,8.53
2023-03-12T08:41:08.321Z,7.67
2023-03-12T08:43:35.312Z,5.65
2023-03-12T08:46:03.853Z,6.75
2023-03-12T08:48:32.137Z,9.82
2023-03-12T08:51:04.224Z,7.05
2023-03-12T08:53:32.663Z,4.82
2023-03-12T08:55:59.758Z,5.82
2023-03-12T08:58:27.389Z,8.43
2023-03-12T09:00:55.362Z,6.22
2023-03-12T09:03:23.716Z,6.47
2023-03-12T09:05:51.992Z,7.28
2023-03-12T09:08:19.117Z,6.28
2023-03-12T09:10:52.511Z,6.95
2023-03-12T09:13:19.652Z,4.85
2023-03-12T09:15:46.866Z,5.68
2023-03-12T09:18:13.974Z,5.13
2023-03-12T09:20:42.848Z,6.70
2023-03-12T09:23:12.451Z,7.18
2023-03-12T09:25:39.494Z,5.70
2023-03-12T09:28:06.512Z,6.13
2023-03-12T09:30:33.974Z,5.18
2023-03-12T09:37:32.331Z,4.20
2023-03-12T09:40:00.187Z,8.68
2023-03-12T09:42:29.783Z,8.10
2023-03-12T09:45:00.304Z,9.60
2023-03-12T09:51:57.017Z,7.77
2023-03-12T09:54:41.632Z,6.18
2023-03-12T09:57:18.413Z,6.68
2023-03-12T09:59:45.518Z,6.97
2023-03-12T10:06:41.883Z,6.47
2023-03-12T10:09:18.159Z,5.68
2023-03-12T10:12:17.385Z,8.85
2023-03-12T10:15:19.483Z,7.93
2023-03-12T10:21:52.669Z,6.13
2023-03-12T10:24:25.214Z,9.38
2023-03-12T10:26:57.940Z,11.43
2023-03-12T10:29:25.208Z,7.78
2023-03-12T10:36:25.808Z,8.30
2023-03-12T10:38:52.965Z,10.38
2023-03-12T10:41:24.553Z,10.40
2023-03-12T10:43:52.105Z,9.43
2023-03-12T10:50:42.984Z,10.25
2023-03-12T10:53:29.981Z,7.22
2023-03-12T10:56:12.563Z,9.80
2023-03-12T10:58:54.080Z,8.57
2023-03-12T11:01:24.816Z,8.07
2023-03-12T11:08:29.745Z,9.93
2023-03-12T11:10:59.500Z,8.77
2023-03-12T11:13:39.249Z,9.48
2023-03-12T11:16:18.842Z,8.80
2023-03-12T11:23:21.271Z,11.25
2023-03-12T11:25:57.413Z,10.07
2023-03-12T11:28:36.760Z,12.13
2023-03-12T11:31:11.940Z,8.32
2023-03-12T11:38:26.503Z,10.37
2023-03-12T11:41:07.647Z,8.40
2023-03-12T11:43:44.412Z,9.80
2023-03-12T11:46:30.527Z,9.40
2023-03-12T11:53:30.924Z,11.80
2023-03-12T11:56:13.438Z,7.77
2023-03-12T11:58:53.090Z,8.67
2023-03-12T12:01:26.103Z,8.53
2023-03-12T12:04:28.372Z,13.37
2023-03-12T12:07:03.819Z,10.90
2023-03-12T12:09:45.700Z,13.73
2023-03-12T12:12:39.998Z,10.93
2023-03-12T12:15:35.216Z,12.20
2023-03-12T12:22:34.761Z,9.70
2023-03-12T12:25:01.904Z,13.20
2023-03-12T12:27:33.374Z,11.53
2023-03-12T12:30:27.763Z,12.60
2023-03-12T12:37:16.409Z,10.63
2023-03-12T12:39:58.418Z,10.00
2023-03-12T12:42:32.140Z,11.63
2023-03-12T12:45:02.393Z,9.80
2023-03-12T12:52:01.821Z,11.30
2023-03-12T12:54:53.509Z,10.43
2023-03-12T12:58:07.985Z,8.90
2023-03-12T13:00:46.654Z,9.10
2023-03-12T13:03:19.937Z,10.30
2023-03-12T13:05:53.564Z,9.27
2023-03-12T13:08:32.766Z,11.13
2023-03-12T13:11:17.245Z,10.73
2023-03-12T13:13:50.762Z,7.77
2023-03-12T13:16:36.401Z,11.03
2023-03-12T13:19:16.288Z,11.33
2023-03-12T13:22:04.125Z,8.47
2023-03-12T13:24:40.207Z,12.80
2023-03-12T13:27:36.468Z,10.90
2023-03-12T13:30:34.254Z,11.73
2023-03-12T13:34:32.475Z,11.33
2023-03-12T13:37:02.324Z,12.03
2023-03-12T13:39:38.671Z,8.33
2023-03-12T13:42:39.434Z,9.67
2023-03-12T13:45:27.929Z,13.63
2023-03-12T13:52:14.410Z,10.77
2023-03-12T13:54:46.699Z,10.50
2023-03-12T13:57:44.071Z,7.93
2023-03-12T14:00:34.222Z,8.60
2023-03-12T14:03:06.443Z,8.33
2023-03-12T14:10:29.470Z,7.97
2023-03-12T14:13:29.516Z,7.97
2023-03-12T14:16:20.876Z,7.23
2023-03-12T14:18:49.493Z,9.73
2023-03-12T14:21:17.688Z,9.20
2023-03-12T14:23:55.019Z,8.83
2023-03-12T14:26:27.440Z,8.83
2023-03-12T14:29:17.722Z,10.30
2023-03-12T14:31:46.706Z,9.73
2023-03-12T14:34:22.540Z,7.90
2023-03-12T14:37:02.763Z,6.70
2023-03-12T14:39:39.820Z,8.17
2023-03-12T14:42:08.605Z,8.03
2023-03-12T14:44:42.293Z,10.77
2023-03-12T14:47:17.260Z,8.07
2023-03-12T14:49:46.878Z,8.53
2023-03-12T14:52:23.857Z,7.67
2023-03-12T14:55:15.230Z,9.20
2023-03-12T14:57:42.689Z,8.53
2023-03-12T15:00:26.447Z,9.83
2023-03-12T15:02:57.822Z,9.03
2023-03-12T15:05:26.716Z,8.90
2023-03-12T15:08:00.895Z,6.73
2023-03-12T15:10:30.198Z,8.07
2023-03-12T15:12:59.311Z,9.37
2023-03-12T15:15:48.106Z,6.70
2023-03-12T15:18:26.167Z,7.27
2023-03-12T15:20:54.546Z,7.27
2023-03-12T15:23:24.351Z,7.77
2023-03-12T15:26:12.814Z,7.20
2023-03-12T15:28:40.723Z,6.40
2023-03-12T15:31:12.045Z,7.40
2023-03-12T15:33:40.461Z,6.57
2023-03-12T15:36:19.610Z,7.50
2023-03-12T15:38:49.981Z,8.60
2023-03-12T15:41:28.320Z,9.47
2023-03-12T15:43:57.761Z,8.23
2023-03-12T15:46:26.446Z,6.07
2023-03-12T15:48:58.337Z,4.87
2023-03-12T15:51:35.676Z,6.73
2023-03-12T15:54:13.423Z,6.90
2023-03-12T15:56:40.681Z,6.50
2023-03-12T15:59:16.797Z,8.17
2023-03-12T16:01:57.439Z,6.13
2023-03-12T16:08:52.569Z,8.90
2023-03-12T16:11:25.723Z,10.50
2023-03-12T16:14:07.150Z,8.23
2023-03-12T16:16:36.543Z,7.67
2023-03-12T16:19:04.127Z,9.30
2023-03-12T16:21:31.186Z,10.77
2023-03-12T16:23:58.276Z,7.73
2023-03-12T16:26:28.097Z,9.50
2023-03-12T16:28:55.232Z,8.67
2023-03-12T16:31:22.321Z,10.60
2023-03-12T16:33:49.404Z,10.33
2023-03-12T16:36:19.205Z,8.87
2023-03-12T16:38:47.134Z,8.87
2023-03-12T16:41:19.095Z,10.13
2023-03-12T16:43:53.942Z,10.20
2023-03-12T16:46:23.348Z,9.20
2023-03-12T16:48:53.764Z,11.20
2023-03-12T16:51:24.879Z,9.97
2023-03-12T16:54:06.900Z,9.67
2023-03-12T16:56:38.090Z,10.53
2023-03-12T16:59:28.720Z,8.93
2023-03-12T17:01:56.742Z,10.73
2023-03-12T17:04:24.499Z,10.90
2023-03-12T17:06:55.420Z,10.93
2023-03-12T17:09:27.576Z,12.00
2023-03-12T17:11:54.696Z,12.00
2023-03-12T17:14:23.249Z,12.40
2023-03-12T17:16:51.797Z,11.80
2023-03-12T17:19:19.188Z,11.70
2023-03-12T17:21:52.548Z,12.03
2023-03-12T17:24:28.517Z,12.00
2023-03-12T17:26:59.328Z,10.43
2023-03-12T17:29:29.914Z,12.93
2023-03-12T17:31:57.264Z,11.33
2023-03-12T17:34:24.279Z,11.63
2023-03-12T17:36:51.392Z,13.30
2023-03-12T17:39:18.504Z,13.83
2023-03-12T17:41:45.694Z,11.40
2023-03-12T17:44:14.897Z,18.03
2023-03-12T17:46:56.540Z,18.43
2023-03-12T17:49:25.860Z,18.00
2023-03-12T17:51:53.049Z,18.73
2023-03-12T17:54:20.134Z,19.20
2023-03-12T17:56:47.577Z,20.70
2023-03-12T17:59:14.654Z,23.37
2023-03-12T18:01:41.698Z,18.70
2023-03-12T18:04:08.740Z,23.37
2023-03-12T18:06:35.692Z,17.40
2023-03-12T18:09:02.809Z,16.77
2023-03-12T18:11:29.880Z,22.60
2023-03-12T18:13:56.890Z,26.03
2023-03-12T18:16:23.935Z,21.67
2023-03-12T18:18:52.636Z,21.50
2023-03-12T18:21:19.970Z,20.03
2023-03-12T18:23:47.065Z,23.10
2023-03-12T18:26:14.439Z,22.57
2023-03-12T18:28:41.464Z,25.67
2023-03-12T18:31:09.270Z,19.27
2023-03-12T18:33:37.406Z,25.17
2023-03-12T18:36:05.316Z,21.03
2023-03-12T18:38:33.043Z,20.23
2023-03-12T18:41:07.622Z,25.67
2023-03-12T18:43:39.875Z,22.97
2023-03-12T18:46:11.575Z,22.00
2023-03-12T18:48:39.317Z,19.97
2023-03-12T18:51:06.394Z,22.10
2023-03-12T18:53:34.090Z,22.47
2023-03-12T18:56:12.172Z,18.77
2023-03-12T18:58:39.647Z,19.43
2023-03-12T19:01:10.815Z,22.33
2023-03-12T19:03:39.129Z,17.77
2023-03-12T19:10:39.880Z,18.97
2023-03-12T19:13:10.850Z,25.63
2023-03-12T19:15:47.901Z,16.80
2023-03-12T19:18:18.858Z,16.83
2023-03-12T19:20:47.768Z,17.67
2023-03-12T19:28:04.550Z,15.07
2023-03-12T19:30:33.656Z,16.93
2023-03-12T19:33:01.512Z,15.20
2023-03-12T19:35:28.666Z,16.57
2023-03-12T19:42:32.808Z,17.03
2023-03-12T19:45:00.172Z,16.17
2023-03-12T19:47:28.124Z,18.03
2023-03-12T19:49:55.285Z,16.07
2023-03-12T19:52:22.623Z,16.27
2023-03-12T19:55:03.230Z,19.47
2023-03-12T19:57:31.649Z,15.20
2023-03-12T19:59:58.952Z,15.03
2023-03-12T20:02:26.801Z,15.00
2023-03-12T20:04:55.407Z,16.60
2023-03-12T20:07:22.841Z,15.57
2023-03-12T20:09:50.080Z,20.37
2023-03-12T20:12:17.993Z,17.83
2023-03-12T20:14:45.314Z,30.97
2023-03-12T20:17:13.851Z,21.77
2023-03-12T20:19:41.282Z,17.90
2023-03-12T20:22:08.918Z,20.77
2023-03-12T20:24:36.868Z,20.03
2023-03-12T20:27:05.042Z,19.43
2023-03-12T20:29:32.370Z,17.13
2023-03-12T20:31:59.712Z,22.17
2023-03-12T20:34:27.143Z,20.57
2023-03-12T20:36:57.302Z,21.43
2023-03-12T20:43:49.193Z,33.23
2023-03-12T20:46:17.389Z,34.47
2023-03-12T20:48:49.172Z,35.00
2023-03-12T20:51:16.483Z,34.17
2023-03-12T20:58:19.986Z,30.50
2023-03-12T21:00:47.964Z,31.73
2023-03-12T21:03:15.502Z,27.93
2023-03-12T21:06:05.290Z,30.30
2023-03-12T21:08:47.108Z,27.97
2023-03-12T21:11:20.980Z,25.30
2023-03-12T21:13:51.515Z,27.67
2023-03-12T21:16:19.834Z,25.17
2023-03-12T21:18:58.208Z,29.63
2023-03-12T21:21:25.767Z,25.03
2023-03-12T21:23:52.895Z,28.77
2023-03-12T21:26:20.114Z,25.17
2023-03-12T21:28:50.068Z,21.77
2023-03-12T21:31:19.258Z,25.53
2023-03-12T21:33:47.014Z,25.87
2023-03-12T21:36:20.430Z,24.57
2023-03-12T21:38:48.870Z,23.57
2023-03-12T21:41:23.404Z,22.97
2023-03-12T21:44:00.859Z,22.07
2023-03-12T21:46:30.118Z,24.63
2023-03-12T21:48:57.823Z,24.30
2023-03-12T21:51:26.365Z,21.70
2023-03-12T21:53:55.167Z,24.27
2023-03-12T21:56:30.370Z,24.17
2023-03-12T21:58:58.325Z,24.97
2023-03-12T22:01:26.151Z,22.83
2023-03-12T22:03:58.705Z,21.03
2023-03-12T22:06:32.344Z,25.67
2023-03-12T22:09:00.428Z,24.10
2023-03-12T22:11:33.957Z,22.33
2023-03-12T22:14:02.508Z,20.03
2023-03-12T22:16:29.998Z,21.80
2023-03-12T22:18:58.008Z,20.73
2023-03-12T22:21:39.001Z,24.87
2023-03-12T22:24:06.397Z,18.87
2023-03-12T22:26:33.522Z,19.73
2023-03-12T22:29:01.333Z,18.03
2023-03-12T22:31:30.252Z,19.10
2023-03-12T22:33:57.795Z,19.83
2023-03-12T22:36:25.005Z,17.40
2023-03-12T22:38:52.679Z,21.03
2023-03-12T22:41:27.741Z,17.13
2023-03-12T22:43:57.354Z,17.23
2023-03-12T22:46:26.035Z,14.83
2023-03-12T22:48:58.388Z,15.63
2023-03-12T22:51:27.386Z,15.03
2023-03-12T22:53:55.182Z,15.23
2023-03-12T22:56:22.873Z,16.70
2023-03-12T22:58:50.401Z,16.47
2023-03-12T23:01:20.320Z,15.53
2023-03-12T23:03:50.347Z,15.23
2023-03-12T23:06:29.938Z,16.63
2023-03-12T23:08:57.885Z,14.80
2023-03-12T23:11:26.616Z,16.50
2023-03-12T23:13:54.524Z,14.40
2023-03-12T23:16:24.141Z,14.20
2023-03-12T23:18:51.381Z,15.67
2023-03-12T23:21:20.961Z,16.33
2023-03-12T23:23:49.349Z,16.20
2023-03-12T23:26:21.825Z,16.57
2023-03-12T23:28:51.199Z,17.73
2023-03-12T23:31:19.001Z,16.00
2023-03-12T23:33:46.114Z,17.47
2023-03-12T23:36:21.956Z,13.20
2023-03-12T23:38:50.534Z,14.57
2023-03-12T23:45:59.255Z,16.13
2023-03-12T23:48:30.616Z,14.23
2023-03-12T23:51:12.531Z,12.20
2023-03-12T23:53:41.186Z,13.50
2023-03-12T23:56:11.349Z,15.10
2023-03-12T23:58:38.908Z,14.07
